createdAt,value
2017-11-13T00:00:28.325Z,66.53
2017-11-13T00:02:58.859Z,66.18
2017-11-13T00:05:27.726Z,66.53
2017-11-13T00:08:00.057Z,65.82
2017-11-13T00:10:29.080Z,65.43
2017-11-13T00:12:58.008Z,66.05
2017-11-13T00:15:27.666Z,67.19
2017-11-13T00:17:56.935Z,66.70
2017-11-13T00:20:25.855Z,66.06
2017-11-13T00:22:54.761Z,66.42
2017-11-13T00:25:23.706Z,65.94
2017-11-13T00:27:52.571Z,65.55
2017-11-13T00:30:22.433Z,66.62
2017-11-13T00:32:52.592Z,68.55
2017-11-13T00:35:21.535Z,67.77
2017-11-13T00:37:50.402Z,67.25
2017-11-13T00:40:19.370Z,66.46
2017-11-13T00:42:48.725Z,65.01
2017-11-13T00:45:17.771Z,64.44
2017-11-13T00:47:47.831Z,64.95
2017-11-13T00:50:17.089Z,65.79
2017-11-13T00:52:46.700Z,65.60
2017-11-13T00:55:15.870Z,67.21
2017-11-13T00:57:45.156Z,66.46
2017-11-13T01:00:14.877Z,67.64
2017-11-13T01:02:44.505Z,68.43
2017-11-13T01:05:13.419Z,72.52
2017-11-13T01:07:42.289Z,70.83
2017-11-13T01:10:11.487Z,69.80
2017-11-13T01:12:40.416Z,69.34
2017-11-13T01:15:09.990Z,67.76
2017-11-13T01:17:38.908Z,67.54
2017-11-13T01:20:07.745Z,67.16
2017-11-13T01:22:37.302Z,67.37
2017-11-13T01:25:06.132Z,67.44
2017-11-13T01:27:35.172Z,67.00
2017-11-13T01:30:04.464Z,66.20
2017-11-13T01:32:33.613Z,65.85
2017-11-13T01:35:02.727Z,66.98
2017-11-13T01:37:31.967Z,65.97
2017-11-13T01:40:01.052Z,67.31
2017-11-13T01:42:30.017Z,69.60
2017-11-13T01:44:59.181Z,69.63
2017-11-13T01:47:28.304Z,69.25
2017-11-13T01:49:57.147Z,68.65
2017-11-13T01:52:26.040Z,67.94
2017-11-13T01:54:54.824Z,67.78
2017-11-13T01:57:24.528Z,67.70
2017-11-13T01:59:53.632Z,68.36
2017-11-13T02:02:22.567Z,69.48
2017-11-13T02:04:51.431Z,68.95
2017-11-13T02:07:21.176Z,67.79
2017-11-13T02:09:50.191Z,68.64
2017-11-13T02:12:19.073Z,68.20
2017-11-13T02:14:48.694Z,67.68
2017-11-13T02:17:17.631Z,66.98
2017-11-13T02:19:47.615Z,66.34
2017-11-13T02:22:17.122Z,67.29
2017-11-13T02:24:47.112Z,68.19
2017-11-13T02:27:16.071Z,67.37
2017-11-13T02:29:45.383Z,67.72
2017-11-13T02:32:14.420Z,67.68
2017-11-13T02:34:43.462Z,69.14
2017-11-13T02:37:12.861Z,67.35
2017-11-13T02:39:41.888Z,66.82
2017-11-13T02:42:11.426Z,66.94
2017-11-13T02:44:41.431Z,66.71
2017-11-13T02:47:10.541Z,66.97
2017-11-13T02:49:39.492Z,67.89
2017-11-13T02:52:08.933Z,67.04
2017-11-13T02:54:37.984Z,70.11
2017-11-13T02:57:07.096Z,69.11
2017-11-13T02:59:36.126Z,70.47
2017-11-13T03:02:05.072Z,69.35
2017-11-13T03:04:34.215Z,68.34
2017-11-13T03:07:03.246Z,69.80
2017-11-13T03:09:32.428Z,68.23
2017-11-13T03:12:01.366Z,69.05
2017-11-13T03:14:30.966Z,69.03
2017-11-13T03:16:59.791Z,68.24
2017-11-13T03:19:29.383Z,66.71
2017-11-13T03:21:59.113Z,66.65
2017-11-13T03:24:28.005Z,67.34
2017-11-13T03:26:57.035Z,67.90
2017-11-13T03:29:25.841Z,67.14
2017-11-13T03:31:55.598Z,67.94
2017-11-13T03:34:25.712Z,69.00
2017-11-13T03:36:55.366Z,70.60
2017-11-13T03:39:24.253Z,69.52
2017-11-13T03:41:53.073Z,69.69
2017-11-13T03:44:21.901Z,68.91
2017-11-13T03:46:50.721Z,68.17
2017-11-13T03:49:19.578Z,69.11
2017-11-13T03:51:48.556Z,68.57
2017-11-13T03:54:17.751Z,67.36
2017-11-13T03:56:46.580Z,67.97
2017-11-13T03:59:15.691Z,67.80
2017-11-13T04:01:45.653Z,67.68
2017-11-13T04:04:14.487Z,67.53
2017-11-13T04:06:43.340Z,68.29
2017-11-13T04:09:12.291Z,68.58
2017-11-13T04:11:41.341Z,69.71
2017-11-13T04:14:12.527Z,68.86
2017-11-13T04:16:41.456Z,68.58
2017-11-13T04:19:10.644Z,67.88
2017-11-13T04:21:39.632Z,66.67
2017-11-13T04:24:09.222Z,66.44
2017-11-13T04:26:38.135Z,67.28
2017-11-13T04:29:07.292Z,66.33
2017-11-13T04:31:36.118Z,66.14
2017-11-13T04:34:05.062Z,67.45
2017-11-13T04:36:34.653Z,66.02
2017-11-13T04:39:05.220Z,67.16
2017-11-13T04:41:34.572Z,67.14
2017-11-13T04:44:03.579Z,68.70
2017-11-13T04:46:33.433Z,69.87
2017-11-13T04:49:02.624Z,68.31
2017-11-13T04:51:31.559Z,67.28
2017-11-13T04:54:00.367Z,66.38
2017-11-13T04:56:30.352Z,65.71
2017-11-13T04:58:59.188Z,65.42
2017-11-13T05:01:29.008Z,65.23
2017-11-13T05:03:58.108Z,65.36
2017-11-13T05:06:27.331Z,65.51
2017-11-13T05:08:56.909Z,65.28
2017-11-13T05:11:26.376Z,64.84
2017-11-13T05:13:55.328Z,64.72
2017-11-13T05:16:24.684Z,67.32
2017-11-13T05:18:55.264Z,66.13
2017-11-13T05:21:25.380Z,65.86
2017-11-13T05:23:55.751Z,65.80
2017-11-13T05:26:24.781Z,66.91
2017-11-13T05:28:53.692Z,67.44
2017-11-13T05:31:22.560Z,66.40
2017-11-13T05:33:51.672Z,67.03
2017-11-13T05:36:20.460Z,68.07
2017-11-13T05:38:49.297Z,70.81
2017-11-13T05:41:18.708Z,70.29
2017-11-13T05:43:47.589Z,69.89
2017-11-13T05:46:17.479Z,69.92
2017-11-13T05:48:47.568Z,71.05
2017-11-13T05:51:16.591Z,71.73
2017-11-13T05:53:45.404Z,71.23
2017-11-13T05:56:14.956Z,71.43
2017-11-13T05:58:44.058Z,69.86
2017-11-13T06:01:12.948Z,71.74
2017-11-13T06:03:42.119Z,71.20
2017-11-13T06:06:11.782Z,69.86
2017-11-13T06:08:41.380Z,69.68
2017-11-13T06:11:10.588Z,69.40
2017-11-13T06:13:40.123Z,69.02
2017-11-13T06:16:08.935Z,70.20
2017-11-13T06:18:38.740Z,70.00
2017-11-13T06:21:07.668Z,68.94
2017-11-13T06:23:36.543Z,68.88
2017-11-13T06:26:05.379Z,69.94
2017-11-13T06:28:34.542Z,68.93
2017-11-13T06:31:03.541Z,69.08
2017-11-13T06:33:33.524Z,68.70
2017-11-13T06:36:03.389Z,68.02
2017-11-13T06:38:32.826Z,69.50
2017-11-13T06:41:01.769Z,70.23
2017-11-13T06:43:31.410Z,72.36
2017-11-13T06:46:00.239Z,71.00
2017-11-13T06:48:29.830Z,69.55
2017-11-13T06:50:59.390Z,69.07
2017-11-13T06:53:28.251Z,69.01
2017-11-13T06:55:57.908Z,67.73
2017-11-13T06:58:26.765Z,71.83
2017-11-13T07:00:55.651Z,71.11
2017-11-13T07:03:25.568Z,71.96
2017-11-13T07:05:54.523Z,72.34
2017-11-13T07:08:23.688Z,74.19
2017-11-13T07:10:52.833Z,73.20
2017-11-13T07:13:22.482Z,72.16
2017-11-13T07:15:51.577Z,71.15
2017-11-13T07:18:20.432Z,71.67
2017-11-13T07:20:50.056Z,71.72
2017-11-13T07:23:18.851Z,73.44
2017-11-13T07:25:47.936Z,73.17
2017-11-13T07:28:16.768Z,73.75
2017-11-13T07:30:45.697Z,74.27
2017-11-13T07:33:15.632Z,71.94
2017-11-13T07:35:44.523Z,71.75
2017-11-13T07:38:14.625Z,70.46
2017-11-13T07:40:44.351Z,70.03
2017-11-13T07:43:14.368Z,68.91
2017-11-13T07:45:43.261Z,69.64
2017-11-13T07:48:13.159Z,68.88
2017-11-13T07:50:43.088Z,70.68
2017-11-13T07:53:11.975Z,69.50
2017-11-13T07:55:40.841Z,69.80
2017-11-13T07:58:09.764Z,70.48
2017-11-13T08:00:38.596Z,71.89
2017-11-13T08:03:07.441Z,76.98
2017-11-13T08:05:36.864Z,73.38
2017-11-13T08:08:05.762Z,74.35
2017-11-13T08:10:34.592Z,73.55
2017-11-13T08:13:05.817Z,72.76
2017-11-13T08:15:35.580Z,71.19
2017-11-13T08:18:05.290Z,70.60
2017-11-13T08:20:34.148Z,72.19
2017-11-13T08:23:03.399Z,72.04
2017-11-13T08:25:32.631Z,73.41
2017-11-13T08:28:01.802Z,71.93
2017-11-13T08:30:30.856Z,71.52
2017-11-13T08:32:59.836Z,71.23
2017-11-13T08:35:28.776Z,71.14
2017-11-13T08:37:57.602Z,71.64
2017-11-13T08:40:27.196Z,71.44
2017-11-13T08:42:56.805Z,73.88
2017-11-13T08:45:25.676Z,75.69
2017-11-13T08:47:56.117Z,75.04
2017-11-13T08:50:25.704Z,72.89
2017-11-13T08:52:55.413Z,73.44
2017-11-13T08:55:26.177Z,73.29
2017-11-13T08:57:55.000Z,70.13
2017-11-13T09:00:23.817Z,68.97
2017-11-13T09:02:53.465Z,70.09
2017-11-13T09:05:22.629Z,69.19
2017-11-13T09:07:52.812Z,68.90
2017-11-13T09:10:22.541Z,68.50
2017-11-13T09:12:54.622Z,67.66
2017-11-13T09:15:24.240Z,68.53
2017-11-13T09:17:53.826Z,66.62
2017-11-13T09:20:22.771Z,65.86
2017-11-13T09:22:52.739Z,65.51
2017-11-13T09:25:22.312Z,65.99
2017-11-13T09:27:51.180Z,68.30
2017-11-13T09:30:20.023Z,67.83
2017-11-13T09:32:50.056Z,68.14
2017-11-13T09:35:18.867Z,67.84
2017-11-13T09:37:48.022Z,68.35
2017-11-13T09:40:18.012Z,70.01
2017-11-13T09:42:47.628Z,71.87
2017-11-13T09:45:16.799Z,71.23
2017-11-13T09:47:46.053Z,73.89
2017-11-13T09:50:14.949Z,73.21
2017-11-13T09:52:44.447Z,71.37
2017-11-13T09:55:13.488Z,69.76
2017-11-13T09:57:43.135Z,69.14
2017-11-13T10:00:13.810Z,68.78
2017-11-13T10:02:43.290Z,71.80
2017-11-13T10:05:12.187Z,70.05
2017-11-13T10:07:41.835Z,68.44
2017-11-13T10:10:11.099Z,71.14
2017-11-13T10:12:40.116Z,72.71
2017-11-13T10:15:09.784Z,76.43
2017-11-13T10:17:39.126Z,76.89
2017-11-13T10:20:08.796Z,76.17
2017-11-13T10:22:38.775Z,74.18
2017-11-13T10:25:09.004Z,72.24
2017-11-13T10:27:38.711Z,73.54
2017-11-13T10:30:08.536Z,74.77
2017-11-13T10:32:37.785Z,74.68
2017-11-13T10:35:07.063Z,78.11
2017-11-13T10:37:35.914Z,74.89
2017-11-13T10:40:05.551Z,74.73
2017-11-13T10:42:34.436Z,76.04
2017-11-13T10:45:03.460Z,73.75
2017-11-13T10:47:32.812Z,72.12
2017-11-13T10:50:01.880Z,69.68
2017-11-13T10:52:31.488Z,67.21
2017-11-13T10:55:01.475Z,70.72
2017-11-13T10:57:31.342Z,72.96
2017-11-13T11:00:00.701Z,72.91
2017-11-13T11:02:29.817Z,71.03
2017-11-13T11:05:00.076Z,71.92
2017-11-13T11:07:29.077Z,69.84
2017-11-13T11:09:58.095Z,69.06
2017-11-13T11:12:27.468Z,68.81
2017-11-13T11:14:56.561Z,68.40
2017-11-13T11:17:25.612Z,69.53
2017-11-13T11:19:54.601Z,68.60
2017-11-13T11:22:24.302Z,67.34
2017-11-13T11:24:54.011Z,65.56
2017-11-13T11:27:22.984Z,64.98
2017-11-13T11:29:51.965Z,64.52
2017-11-13T11:32:20.936Z,66.24
2017-11-13T11:34:50.045Z,66.77
2017-11-13T11:37:19.801Z,68.27
2017-11-13T11:39:51.132Z,65.20
2017-11-13T11:42:20.090Z,67.19
2017-11-13T11:44:49.385Z,66.62
2017-11-13T11:47:18.633Z,68.34
2017-11-13T11:49:48.909Z,66.39
2017-11-13T11:52:18.015Z,69.02
2017-11-13T11:54:47.117Z,66.34
2017-11-13T11:57:16.191Z,64.89
2017-11-13T11:59:45.219Z,66.93
2017-11-13T12:02:14.481Z,67.94
2017-11-13T12:04:43.581Z,65.56
2017-11-13T12:07:12.656Z,64.95
2017-11-13T12:09:41.703Z,66.93
2017-11-13T12:12:11.324Z,68.52
2017-11-13T12:14:40.211Z,67.12
2017-11-13T12:17:09.097Z,65.07
2017-11-13T12:19:38.750Z,65.94
2017-11-13T12:22:08.479Z,64.82
2017-11-13T12:24:38.162Z,65.29
2017-11-13T12:27:07.849Z,64.26
2017-11-13T12:29:37.800Z,64.23
2017-11-13T12:32:06.674Z,62.04
2017-11-13T12:34:35.582Z,62.89
2017-11-13T12:37:05.598Z,61.79
2017-11-13T12:39:34.607Z,63.15
2017-11-13T12:42:03.484Z,63.65
2017-11-13T12:44:32.780Z,66.02
2017-11-13T12:47:01.761Z,66.59
2017-11-13T12:49:30.596Z,65.75
2017-11-13T12:52:01.619Z,67.42
2017-11-13T12:54:31.594Z,68.24
2017-11-13T12:57:01.210Z,66.71
2017-11-13T12:59:31.486Z,66.62
2017-11-13T13:02:00.606Z,68.21
2017-11-13T13:04:30.414Z,67.39
2017-11-13T13:06:59.306Z,66.53
2017-11-13T13:09:28.639Z,67.30
2017-11-13T13:11:57.553Z,67.60
2017-11-13T13:14:27.272Z,68.03
2017-11-13T13:16:56.163Z,67.48
2017-11-13T13:19:25.088Z,68.03
2017-11-13T13:21:53.899Z,68.24
2017-11-13T13:24:23.052Z,68.53
2017-11-13T13:26:51.966Z,72.01
2017-11-13T13:29:20.824Z,70.68
2017-11-13T13:31:50.625Z,67.05
2017-11-13T13:34:20.308Z,70.27
2017-11-13T13:36:49.281Z,69.32
2017-11-13T13:39:18.620Z,68.69
2017-11-13T13:41:48.208Z,68.22
2017-11-13T13:44:17.431Z,67.72
2017-11-13T13:46:46.604Z,67.42
2017-11-13T13:49:16.189Z,66.42
2017-11-13T13:51:45.101Z,67.73
2017-11-13T13:54:14.962Z,67.36
2017-11-13T13:56:43.944Z,67.83
2017-11-13T13:59:12.813Z,67.68
2017-11-13T14:01:41.843Z,66.54
2017-11-13T14:04:10.715Z,66.75
2017-11-13T14:06:39.566Z,65.38
2017-11-13T14:09:09.717Z,64.54
2017-11-13T14:11:38.686Z,64.05
2017-11-13T14:14:08.691Z,64.83
2017-11-13T14:16:38.297Z,65.87
2017-11-13T14:19:07.899Z,65.92
2017-11-13T14:21:38.046Z,65.62
2017-11-13T14:24:06.896Z,65.18
2017-11-13T14:26:35.826Z,64.46
2017-11-13T14:29:10.589Z,64.87
2017-11-13T14:31:39.691Z,66.20
2017-11-13T14:34:08.747Z,65.30
2017-11-13T14:36:37.955Z,65.93
2017-11-13T14:39:06.956Z,65.06
2017-11-13T14:41:35.809Z,64.02
2017-11-13T14:44:15.361Z,63.58
2017-11-13T14:46:44.247Z,63.13
2017-11-13T14:49:13.430Z,62.97
2017-11-13T14:51:42.409Z,63.00
2017-11-13T14:54:12.019Z,62.79
2017-11-13T14:56:41.644Z,63.93
2017-11-13T14:59:10.536Z,63.58
2017-11-13T15:01:40.152Z,63.45
2017-11-13T15:04:09.704Z,64.63
2017-11-13T15:06:41.103Z,63.51
2017-11-13T15:09:09.953Z,63.22
2017-11-13T15:11:39.552Z,62.90
2017-11-13T15:14:09.759Z,62.73
2017-11-13T15:16:38.607Z,62.39
2017-11-13T15:19:08.671Z,61.64
2017-11-13T15:24:10.631Z,60.65
2017-11-13T15:26:39.936Z,60.61
2017-11-13T15:29:08.796Z,60.63
2017-11-13T15:31:37.658Z,60.83
2017-11-13T15:34:06.896Z,60.96
2017-11-13T15:36:36.416Z,60.83
2017-11-13T15:39:08.865Z,60.76
2017-11-13T15:41:37.719Z,60.82
2017-11-13T15:44:06.583Z,60.67
2017-11-13T15:46:45.940Z,61.20
2017-11-13T15:49:14.854Z,61.72
2017-11-13T15:51:43.788Z,61.63
2017-11-13T15:54:12.942Z,61.57
2017-11-13T15:56:41.784Z,61.87
2017-11-13T15:59:10.608Z,61.90
2017-11-13T16:01:39.844Z,61.87
2017-11-13T16:04:09.011Z,61.82
2017-11-13T16:06:37.864Z,61.59
2017-11-13T16:09:07.513Z,61.62
2017-11-13T16:11:37.053Z,61.65
2017-11-13T16:14:07.280Z,61.31
2017-11-13T16:16:36.278Z,61.09
2017-11-13T16:19:06.284Z,60.97
2017-11-13T16:21:35.168Z,61.38
2017-11-13T16:24:04.155Z,61.55
2017-11-13T16:26:33.822Z,62.36
2017-11-13T16:29:02.873Z,61.98
2017-11-13T16:31:32.833Z,62.14
2017-11-13T16:34:04.561Z,62.29
2017-11-13T16:36:37.980Z,62.93
2017-11-13T16:39:34.163Z,62.42
2017-11-13T16:56:25.805Z,62.66
2017-11-13T16:58:56.037Z,62.04
2017-11-13T17:01:25.752Z,62.55
2017-11-13T17:04:20.015Z,62.25
2017-11-13T17:06:49.340Z,61.82
2017-11-13T17:09:18.753Z,61.77
2017-11-13T17:11:48.302Z,62.18
2017-11-13T17:17:53.714Z,62.10
2017-11-13T17:20:23.349Z,62.06
2017-11-13T17:22:52.584Z,61.77
2017-11-13T17:25:32.248Z,62.19
2017-11-13T17:28:02.125Z,63.10
2017-11-13T17:30:31.373Z,63.85
2017-11-13T17:33:00.689Z,64.19
2017-11-13T17:35:44.997Z,63.83
2017-11-13T17:38:14.323Z,63.02
2017-11-13T17:40:43.822Z,62.60
2017-11-13T17:43:13.505Z,62.77
2017-11-13T17:49:18.886Z,61.73
2017-11-13T17:51:48.413Z,62.30
2017-11-13T17:54:17.727Z,63.07
2017-11-13T17:56:47.116Z,63.16
2017-11-13T17:59:16.438Z,63.35
2017-11-13T18:01:45.978Z,63.20
2017-11-13T18:04:15.326Z,62.71
2017-11-13T18:06:44.940Z,62.75
2017-11-13T18:09:14.440Z,62.18
2017-11-13T18:11:44.949Z,62.23
2017-11-13T18:15:10.798Z,62.58
2017-11-13T18:17:41.810Z,62.80
2017-11-13T18:20:12.209Z,62.48
2017-11-13T18:23:23.343Z,62.29
2017-11-13T18:25:54.072Z,62.95
2017-11-13T18:28:23.969Z,62.91
2017-11-13T18:30:53.837Z,62.81
2017-11-13T18:33:23.253Z,62.64
2017-11-13T18:35:53.605Z,62.91
2017-11-13T18:38:28.568Z,62.85
2017-11-13T18:41:02.032Z,62.47
2017-11-13T18:43:42.381Z,62.31
2017-11-13T18:46:43.698Z,62.10
2017-11-13T18:49:19.703Z,61.89
2017-11-13T18:51:55.158Z,61.92
2017-11-13T18:54:28.593Z,61.72
2017-11-13T18:57:01.888Z,61.15
2017-11-13T19:04:41.288Z,60.88
2017-11-13T19:07:14.087Z,61.86
2017-11-13T19:09:43.486Z,61.72
2017-11-13T19:12:12.957Z,61.33
2017-11-13T19:14:44.353Z,61.30
2017-11-13T19:17:14.662Z,61.45
2017-11-13T19:19:43.892Z,61.53
2017-11-13T19:22:13.004Z,61.53
2017-11-13T19:24:42.028Z,61.38
2017-11-13T19:27:12.467Z,61.58
2017-11-13T19:29:41.512Z,61.98
2017-11-13T19:32:10.519Z,62.01
2017-11-13T19:34:40.279Z,62.32
2017-11-13T19:37:09.276Z,63.72
2017-11-13T19:39:39.051Z,63.03
2017-11-13T19:42:07.968Z,63.09
2017-11-13T19:44:40.628Z,64.02
2017-11-13T19:47:09.585Z,64.12
2017-11-13T19:49:41.333Z,63.89
2017-11-13T19:52:13.428Z,64.05
2017-11-13T19:54:44.712Z,64.37
2017-11-13T19:57:14.363Z,66.88
2017-11-13T19:59:43.962Z,67.26
2017-11-13T20:02:13.235Z,67.45
2017-11-13T20:04:42.433Z,66.52
2017-11-13T20:07:11.316Z,66.22
2017-11-13T20:09:40.884Z,68.46
2017-11-13T20:12:09.712Z,68.83
2017-11-13T20:14:38.573Z,68.98
2017-11-13T20:17:07.408Z,68.39
2017-11-13T20:19:36.248Z,69.49
2017-11-13T20:22:06.534Z,69.28
2017-11-13T20:24:35.362Z,67.73
2017-11-13T20:27:05.391Z,67.22
2017-11-13T20:29:37.512Z,66.89
2017-11-13T20:32:08.412Z,65.85
2017-11-13T20:34:37.341Z,65.35
2017-11-13T20:37:06.224Z,65.28
2017-11-13T20:39:35.801Z,64.76
2017-11-13T20:42:04.691Z,64.70
2017-11-13T20:44:33.540Z,66.66
2017-11-13T20:47:02.451Z,69.81
2017-11-13T20:49:31.819Z,70.18
2017-11-13T20:52:01.417Z,69.41
2017-11-13T20:54:30.643Z,68.37
2017-11-13T20:57:00.352Z,67.06
2017-11-13T20:59:29.243Z,67.05
2017-11-13T21:02:02.199Z,66.04
2017-11-13T21:04:31.374Z,65.76
2017-11-13T21:07:00.236Z,65.78
2017-11-13T21:09:29.226Z,65.71
2017-11-13T21:11:58.103Z,65.15
2017-11-13T21:14:27.696Z,64.67
2017-11-13T21:16:57.291Z,64.00
2017-11-13T21:19:26.181Z,63.87
2017-11-13T21:21:57.424Z,63.73
2017-11-13T21:24:27.243Z,64.55
2017-11-13T21:26:56.829Z,64.28
2017-11-13T21:29:26.045Z,63.72
2017-11-13T21:31:55.617Z,63.91
2017-11-13T21:34:24.456Z,64.51
2017-11-13T21:36:56.324Z,66.26
2017-11-13T21:39:25.155Z,65.15
2017-11-13T21:41:53.976Z,64.91
2017-11-13T21:44:24.527Z,65.07
2017-11-13T21:46:53.715Z,64.89
2017-11-13T21:49:22.596Z,64.23
2017-11-13T21:51:52.232Z,64.71
2017-11-13T21:54:21.079Z,65.05
2017-11-13T21:56:53.150Z,65.37
2017-11-13T21:59:22.704Z,65.17
2017-11-13T22:01:51.569Z,64.67
2017-11-13T22:04:20.364Z,64.34
2017-11-13T22:06:50.568Z,63.90
2017-11-13T22:09:19.376Z,64.48
2017-11-13T22:11:48.227Z,65.36
2017-11-13T22:14:17.811Z,66.92
2017-11-13T22:16:46.643Z,66.08
2017-11-13T22:19:19.084Z,65.14
2017-11-13T22:21:48.300Z,64.93
2017-11-13T22:24:17.128Z,64.67
2017-11-13T22:26:48.994Z,65.53
2017-11-13T22:29:17.848Z,65.77
2017-11-13T22:31:46.680Z,65.93
2017-11-13T22:34:15.559Z,65.34
2017-11-13T22:36:44.367Z,65.07
2017-11-13T22:39:14.120Z,64.89
2017-11-13T22:41:43.263Z,65.62
2017-11-13T22:44:12.149Z,65.55
2017-11-13T22:46:41.015Z,66.16
2017-11-13T22:49:09.867Z,65.65
2017-11-13T22:51:38.820Z,67.10
2017-11-13T22:54:08.079Z,67.89
2017-11-13T22:56:37.071Z,67.30
2017-11-13T22:59:05.928Z,67.64
2017-11-13T23:01:35.511Z,68.30
2017-11-13T23:04:04.391Z,67.41
2017-11-13T23:06:33.330Z,66.88
2017-11-13T23:09:02.344Z,66.44
2017-11-13T23:11:32.555Z,65.44
2017-11-13T23:14:01.527Z,65.37
2017-11-13T23:16:30.340Z,64.99
2017-11-13T23:19:01.447Z,65.25
2017-11-13T23:21:30.267Z,65.49
2017-11-13T23:23:59.109Z,65.57
2017-11-13T23:26:28.893Z,66.53
2017-11-13T23:28:57.700Z,67.79
2017-11-13T23:31:26.520Z,66.49
2017-11-13T23:33:55.396Z,66.45
2017-11-13T23:36:25.497Z,65.63
2017-11-13T23:38:55.148Z,65.78
2017-11-13T23:41:23.981Z,66.04
2017-11-13T23:43:53.216Z,65.82
2017-11-13T23:46:22.276Z,65.97
2017-11-13T23:48:51.116Z,65.51
2017-11-13T23:51:20.232Z,66.06
2017-11-13T23:53:49.036Z,66.68
2017-11-13T23:56:17.974Z,66.60
2017-11-13T23:58:46.970Z,66.89
